sensor_id;sensor_type;location;lat;lon;timestamp;P1;durP1;ratioP1;P2;durP2;ratioP2
39308;SDS011;26019;47.510;19.122;2023-05-10T00:03:32;4.68;;;2.78;;
39308;SDS011;26019;47.510;19.122;2023-05-10T00:13:34;4.28;;;2.95;;
39308;SDS011;26019;47.510;19.122;2023-05-10T00:23:36;5.97;;;2.75;;
39308;SDS011;26019;47.510;19.122;2023-05-10T00:33:43;3.72;;;2.90;;
39308;SDS011;26019;47.510;19.122;2023-05-10T00:43:46;9.57;;;3.50;;
39308;SDS011;26019;47.510;19.122;2023-05-10T00:53:49;3.97;;;3.10;;
39308;SDS011;26019;47.510;19.122;2023-05-10T01:03:55;5.07;;;3.10;;
39308;SDS011;26019;47.510;19.122;2023-05-10T01:13:57;4.25;;;3.22;;
39308;SDS011;26019;47.510;19.122;2023-05-10T01:35:10;4.72;;;3.38;;
39308;SDS011;26019;47.510;19.122;2023-05-10T01:45:18;4.53;;;3.67;;
39308;SDS011;26019;47.510;19.122;2023-05-10T01:55:30;4.85;;;3.33;;
39308;SDS011;26019;47.510;19.122;2023-05-10T02:05:40;4.47;;;3.38;;
39308;SDS011;26019;47.510;19.122;2023-05-10T02:15:48;5.32;;;3.55;;
39308;SDS011;26019;47.510;19.122;2023-05-10T02:26:05;4.60;;;3.72;;
39308;SDS011;26019;47.510;19.122;2023-05-10T02:36:08;4.05;;;2.95;;
39308;SDS011;26019;47.510;19.122;2023-05-10T02:46:11;6.60;;;3.60;;
39308;SDS011;26019;47.510;19.122;2023-05-10T02:56:24;4.85;;;3.03;;
39308;SDS011;26019;47.510;19.122;2023-05-10T03:06:30;5.05;;;3.13;;
39308;SDS011;26019;47.510;19.122;2023-05-10T03:16:38;4.57;;;3.27;;
39308;SDS011;26019;47.510;19.122;2023-05-10T03:26:48;3.10;;;2.85;;
39308;SDS011;26019;47.510;19.122;2023-05-10T03:36:51;5.30;;;3.28;;
39308;SDS011;26019;47.510;19.122;2023-05-10T03:46:55;5.22;;;3.10;;
39308;SDS011;26019;47.510;19.122;2023-05-10T03:56:59;4.97;;;3.92;;
39308;SDS011;26019;47.510;19.122;2023-05-10T04:07:03;7.70;;;3.53;;
39308;SDS011;26019;47.510;19.122;2023-05-10T04:17:05;7.75;;;3.50;;
39308;SDS011;26019;47.510;19.122;2023-05-10T04:27:13;6.32;;;3.80;;
39308;SDS011;26019;47.510;19.122;2023-05-10T04:37:15;7.60;;;3.78;;
39308;SDS011;26019;47.510;19.122;2023-05-10T04:47:19;5.18;;;4.00;;
39308;SDS011;26019;47.510;19.122;2023-05-10T04:57:21;4.72;;;4.05;;
39308;SDS011;26019;47.510;19.122;2023-05-10T05:07:24;4.70;;;4.25;;
39308;SDS011;26019;47.510;19.122;2023-05-10T05:17:29;8.10;;;5.05;;
39308;SDS011;26019;47.510;19.122;2023-05-10T05:27:32;14.55;;;5.43;;
39308;SDS011;26019;47.510;19.122;2023-05-10T05:37:35;7.70;;;4.63;;
39308;SDS011;26019;47.510;19.122;2023-05-10T05:47:36;5.20;;;4.03;;
39308;SDS011;26019;47.510;19.122;2023-05-10T05:57:38;5.30;;;4.15;;
39308;SDS011;26019;47.510;19.122;2023-05-10T06:07:40;6.82;;;4.50;;
39308;SDS011;26019;47.510;19.122;2023-05-10T06:17:45;6.00;;;4.05;;
39308;SDS011;26019;47.510;19.122;2023-05-10T06:27:48;7.50;;;4.45;;
39308;SDS011;26019;47.510;19.122;2023-05-10T06:37:54;9.18;;;4.43;;
39308;SDS011;26019;47.510;19.122;2023-05-10T06:47:56;4.53;;;4.03;;
39308;SDS011;26019;47.510;19.122;2023-05-10T06:57:59;8.80;;;4.05;;
39308;SDS011;26019;47.510;19.122;2023-05-10T07:08:00;8.50;;;4.03;;
39308;SDS011;26019;47.510;19.122;2023-05-10T07:18:03;6.03;;;4.23;;
39308;SDS011;26019;47.510;19.122;2023-05-10T07:28:07;5.72;;;3.88;;
39308;SDS011;26019;47.510;19.122;2023-05-10T07:38:14;5.45;;;4.20;;
39308;SDS011;26019;47.510;19.122;2023-05-10T07:48:16;7.45;;;3.92;;
39308;SDS011;26019;47.510;19.122;2023-05-10T08:08:23;3.47;;;3.17;;
39308;SDS011;26019;47.510;19.122;2023-05-10T08:18:25;3.70;;;2.75;;
39308;SDS011;26019;47.510;19.122;2023-05-10T08:28:27;6.07;;;3.15;;
39308;SDS011;26019;47.510;19.122;2023-05-10T08:38:29;3.93;;;2.83;;
39308;SDS011;26019;47.510;19.122;2023-05-10T08:48:31;4.85;;;3.60;;
39308;SDS011;26019;47.510;19.122;2023-05-10T08:58:37;5.22;;;3.00;;
39308;SDS011;26019;47.510;19.122;2023-05-10T09:08:39;5.25;;;3.53;;
39308;SDS011;26019;47.510;19.122;2023-05-10T09:18:43;3.50;;;2.58;;
39308;SDS011;26019;47.510;19.122;2023-05-10T09:38:59;2.95;;;2.55;;
39308;SDS011;26019;47.510;19.122;2023-05-10T09:49:01;3.88;;;3.35;;
39308;SDS011;26019;47.510;19.122;2023-05-10T09:59:03;3.80;;;2.97;;
39308;SDS011;26019;47.510;19.122;2023-05-10T10:09:06;4.55;;;2.33;;
39308;SDS011;26019;47.510;19.122;2023-05-10T10:19:09;3.75;;;2.38;;
39308;SDS011;26019;47.510;19.122;2023-05-10T10:39:30;2.72;;;1.73;;
39308;SDS011;26019;47.510;19.122;2023-05-10T10:49:33;6.03;;;2.80;;
39308;SDS011;26019;47.510;19.122;2023-05-10T10:59:43;3.50;;;1.73;;
39308;SDS011;26019;47.510;19.122;2023-05-10T11:09:46;2.42;;;2.20;;
39308;SDS011;26019;47.510;19.122;2023-05-10T11:20:07;2.17;;;1.77;;
39308;SDS011;26019;47.510;19.122;2023-05-10T11:30:11;10.32;;;2.85;;
39308;SDS011;26019;47.510;19.122;2023-05-10T11:50:31;3.90;;;2.35;;
39308;SDS011;26019;47.510;19.122;2023-05-10T12:00:35;6.95;;;2.15;;
39308;SDS011;26019;47.510;19.122;2023-05-10T12:10:36;2.22;;;2.03;;
39308;SDS011;26019;47.510;19.122;2023-05-10T12:20:40;10.50;;;2.65;;
39308;SDS011;26019;47.510;19.122;2023-05-10T12:30:43;3.72;;;2.17;;
39308;SDS011;26019;47.510;19.122;2023-05-10T12:40:48;2.63;;;1.85;;
39308;SDS011;26019;47.510;19.122;2023-05-10T12:50:51;3.20;;;2.63;;
39308;SDS011;26019;47.510;19.122;2023-05-10T13:00:58;5.05;;;1.73;;
39308;SDS011;26019;47.510;19.122;2023-05-10T13:11:01;1.08;;;1.05;;
39308;SDS011;26019;47.510;19.122;2023-05-10T13:21:04;4.47;;;1.30;;
39308;SDS011;26019;47.510;19.122;2023-05-10T13:31:07;1.25;;;1.13;;
39308;SDS011;26019;47.510;19.122;2023-05-10T13:41:10;2.55;;;1.10;;
39308;SDS011;26019;47.510;19.122;2023-05-10T13:51:12;2.22;;;1.38;;
39308;SDS011;26019;47.510;19.122;2023-05-10T14:01:14;4.03;;;1.73;;
39308;SDS011;26019;47.510;19.122;2023-05-10T14:11:16;3.53;;;1.55;;
39308;SDS011;26019;47.510;19.122;2023-05-10T14:21:19;1.88;;;1.10;;
39308;SDS011;26019;47.510;19.122;2023-05-10T14:31:21;4.10;;;1.10;;
39308;SDS011;26019;47.510;19.122;2023-05-10T14:41:25;1.30;;;0.90;;
39308;SDS011;26019;47.510;19.122;2023-05-10T14:51:27;8.38;;;1.00;;
39308;SDS011;26019;47.510;19.122;2023-05-10T15:01:29;1.95;;;1.17;;
39308;SDS011;26019;47.510;19.122;2023-05-10T15:11:38;0.90;;;0.88;;
39308;SDS011;26019;47.510;19.122;2023-05-10T15:21:40;1.77;;;1.10;;
39308;SDS011;26019;47.510;19.122;2023-05-10T15:31:45;2.45;;;1.20;;
39308;SDS011;26019;47.510;19.122;2023-05-10T15:41:48;3.08;;;1.30;;
39308;SDS011;26019;47.510;19.122;2023-05-10T15:51:50;1.20;;;1.20;;
39308;SDS011;26019;47.510;19.122;2023-05-10T16:01:59;2.30;;;0.95;;
39308;SDS011;26019;47.510;19.122;2023-05-10T16:12:06;6.23;;;1.10;;
39308;SDS011;26019;47.510;19.122;2023-05-10T16:22:08;3.22;;;1.27;;
39308;SDS011;26019;47.510;19.122;2023-05-10T16:32:12;4.05;;;1.52;;
39308;SDS011;26019;47.510;19.122;2023-05-10T16:42:14;3.08;;;1.88;;
39308;SDS011;26019;47.510;19.122;2023-05-10T16:52:16;3.00;;;1.63;;
39308;SDS011;26019;47.510;19.122;2023-05-10T17:02:28;4.38;;;1.73;;
39308;SDS011;26019;47.510;19.122;2023-05-10T17:12:30;4.15;;;2.00;;
39308;SDS011;26019;47.510;19.122;2023-05-10T17:32:34;2.03;;;1.85;;
39308;SDS011;26019;47.510;19.122;2023-05-10T17:42:36;2.75;;;1.63;;
39308;SDS011;26019;47.510;19.122;2023-05-10T17:52:38;2.50;;;1.63;;
39308;SDS011;26019;47.510;19.122;2023-05-10T18:02:40;4.10;;;1.80;;
39308;SDS011;26019;47.510;19.122;2023-05-10T18:12:43;4.00;;;2.00;;
39308;SDS011;26019;47.510;19.122;2023-05-10T18:22:46;1.92;;;1.80;;
39308;SDS011;26019;47.510;19.122;2023-05-10T18:32:48;3.67;;;2.43;;
39308;SDS011;26019;47.510;19.122;2023-05-10T18:42:50;3.37;;;1.47;;
39308;SDS011;26019;47.510;19.122;2023-05-10T18:52:53;2.22;;;1.70;;
39308;SDS011;26019;47.510;19.122;2023-05-10T19:02:59;2.47;;;2.13;;
39308;SDS011;26019;47.510;19.122;2023-05-10T19:23:13;3.80;;;2.03;;
39308;SDS011;26019;47.510;19.122;2023-05-10T19:43:49;2.73;;;2.23;;
39308;SDS011;26019;47.510;19.122;2023-05-10T19:53:52;3.00;;;2.47;;
39308;SDS011;26019;47.510;19.122;2023-05-10T20:03:55;2.97;;;2.03;;
39308;SDS011;26019;47.510;19.122;2023-05-10T20:14:02;4.18;;;2.35;;
39308;SDS011;26019;47.510;19.122;2023-05-10T20:24:05;4.65;;;2.05;;
39308;SDS011;26019;47.510;19.122;2023-05-10T20:34:11;3.53;;;1.70;;
39308;SDS011;26019;47.510;19.122;2023-05-10T20:44:13;6.07;;;1.98;;
39308;SDS011;26019;47.510;19.122;2023-05-10T20:54:47;2.58;;;2.38;;
39308;SDS011;26019;47.510;19.122;2023-05-10T21:04:54;2.38;;;1.63;;
39308;SDS011;26019;47.510;19.122;2023-05-10T21:14:58;4.25;;;2.08;;
39308;SDS011;26019;47.510;19.122;2023-05-10T21:25:00;2.03;;;1.67;;
39308;SDS011;26019;47.510;19.122;2023-05-10T21:35:03;2.30;;;1.88;;
39308;SDS011;26019;47.510;19.122;2023-05-10T21:45:05;3.13;;;2.13;;
39308;SDS011;26019;47.510;19.122;2023-05-10T21:55:08;5.47;;;2.30;;
39308;SDS011;26019;47.510;19.122;2023-05-10T22:05:10;7.57;;;2.07;;
39308;SDS011;26019;47.510;19.122;2023-05-10T22:15:12;3.83;;;2.00;;
39308;SDS011;26019;47.510;19.122;2023-05-10T22:25:13;2.58;;;1.50;;
39308;SDS011;26019;47.510;19.122;2023-05-10T22:35:15;3.43;;;2.10;;
39308;SDS011;26019;47.510;19.122;2023-05-10T22:45:17;4.23;;;2.10;;
39308;SDS011;26019;47.510;19.122;2023-05-10T22:55:24;3.88;;;1.80;;
39308;SDS011;26019;47.510;19.122;2023-05-10T23:05:40;2.40;;;2.00;;
39308;SDS011;26019;47.510;19.122;2023-05-10T23:15:43;2.85;;;1.98;;
39308;SDS011;26019;47.510;19.122;2023-05-10T23:35:56;2.67;;;2.15;;
39308;SDS011;26019;47.510;19.122;2023-05-10T23:46:01;6.57;;;2.00;;
39308;SDS011;26019;47.510;19.122;2023-05-10T23:56:03;2.42;;;1.80;;
